createdAt,value
2022-07-30T00:01:04.640Z,0.30
2022-07-30T00:03:52.631Z,0.40
2022-07-30T00:06:41.195Z,0.30
2022-07-30T00:09:29.223Z,0.30
2022-07-30T00:12:22.779Z,0.20
2022-07-30T00:15:11.457Z,0.40
2022-07-30T00:17:59.675Z,0.22
2022-07-30T00:20:48.840Z,0.30
2022-07-30T00:23:37.630Z,0.30
2022-07-30T00:26:26.061Z,0.30
2022-07-30T00:29:14.459Z,0.28
2022-07-30T00:32:02.981Z,0.30
2022-07-30T00:34:51.714Z,0.20
2022-07-30T00:37:40.181Z,0.30
2022-07-30T00:40:28.396Z,0.30
2022-07-30T00:43:20.113Z,0.30
2022-07-30T00:46:08.314Z,0.30
2022-07-30T00:48:56.521Z,0.30
2022-07-30T00:51:45.124Z,0.22
2022-07-30T00:54:33.222Z,0.30
2022-07-30T00:57:21.309Z,0.50
2022-07-30T01:00:13.936Z,0.25
2022-07-30T01:03:04.799Z,0.20
2022-07-30T01:05:52.907Z,0.20
2022-07-30T01:08:43.251Z,0.13
2022-07-30T01:11:39.559Z,0.28
2022-07-30T01:14:27.718Z,0.20
2022-07-30T01:17:17.068Z,0.30
2022-07-30T01:20:37.701Z,0.30
2022-07-30T01:23:36.761Z,0.20
2022-07-30T01:26:26.410Z,0.10
2022-07-30T01:29:28.733Z,0.20
2022-07-30T01:32:20.103Z,0.20
2022-07-30T01:35:11.401Z,0.30
2022-07-30T01:38:02.457Z,0.20
2022-07-30T01:40:53.345Z,0.30
2022-07-30T01:43:43.181Z,0.20
2022-07-30T01:46:33.281Z,0.30
2022-07-30T01:49:24.523Z,0.20
2022-07-30T01:52:14.629Z,0.30
2022-07-30T01:55:03.819Z,0.50
2022-07-30T01:58:01.363Z,0.20
2022-07-30T02:00:52.149Z,0.30
2022-07-30T02:03:40.860Z,0.40
2022-07-30T02:06:40.312Z,0.40
2022-07-30T02:09:47.187Z,0.40
2022-07-30T02:12:38.859Z,0.50
2022-07-30T02:15:37.569Z,0.40
2022-07-30T02:18:58.538Z,0.40
2022-07-30T02:22:08.718Z,0.60
2022-07-30T02:25:01.147Z,0.30
2022-07-30T02:27:58.813Z,0.30
2022-07-30T02:30:56.017Z,0.30
2022-07-30T02:33:49.618Z,0.30
2022-07-30T02:36:39.439Z,0.30
2022-07-30T02:39:28.785Z,0.47
2022-07-30T02:42:18.309Z,0.30
2022-07-30T02:45:12.523Z,0.35
2022-07-30T02:48:06.762Z,0.68
2022-07-30T02:50:57.911Z,0.30
2022-07-30T02:53:48.065Z,0.38
2022-07-30T02:56:37.111Z,0.40
2022-07-30T02:59:26.717Z,0.40
2022-07-30T03:02:15.239Z,0.50
2022-07-30T03:05:07.954Z,0.35
2022-07-30T03:07:59.808Z,0.50
2022-07-30T03:10:49.641Z,0.85
2022-07-30T03:13:38.615Z,0.85
2022-07-30T03:16:28.537Z,0.90
2022-07-30T03:19:23.137Z,0.52
2022-07-30T03:22:13.111Z,0.50
2022-07-30T03:25:02.441Z,0.93
2022-07-30T03:27:52.197Z,0.40
2022-07-30T03:30:40.888Z,0.35
2022-07-30T03:33:38.894Z,0.90
2022-07-30T03:36:28.955Z,1.08
2022-07-30T03:39:18.432Z,0.68
2022-07-30T03:42:08.259Z,0.80
2022-07-30T03:44:58.264Z,0.60
2022-07-30T03:47:47.816Z,1.00
2022-07-30T03:50:41.412Z,0.80
2022-07-30T03:53:30.113Z,0.90
2022-07-30T03:56:42.171Z,0.90
2022-07-30T03:59:53.661Z,0.70
2022-07-30T04:02:45.134Z,1.10
2022-07-30T04:05:55.851Z,1.10
2022-07-30T04:08:44.389Z,1.02
2022-07-30T04:11:41.503Z,1.35
2022-07-30T04:14:44.455Z,0.65
2022-07-30T04:17:45.204Z,1.25
2022-07-30T04:20:42.302Z,0.95
2022-07-30T04:23:30.844Z,1.17
2022-07-30T04:26:19.862Z,1.25
2022-07-30T04:29:13.512Z,1.00
2022-07-30T04:32:09.723Z,0.90
2022-07-30T04:35:50.065Z,1.55
2022-07-30T04:38:37.535Z,1.98
2022-07-30T04:41:26.501Z,1.10
2022-07-30T04:44:44.017Z,0.85
2022-07-30T04:47:58.466Z,1.30
2022-07-30T04:51:01.796Z,0.95
2022-07-30T04:53:53.747Z,1.10
2022-07-30T04:56:53.256Z,1.00
2022-07-30T04:59:50.286Z,1.15
2022-07-30T05:02:41.435Z,1.80
2022-07-30T05:05:32.553Z,1.85
2022-07-30T05:08:21.214Z,1.67
2022-07-30T05:11:14.790Z,1.48
2022-07-30T05:14:03.252Z,1.60
2022-07-30T05:16:52.112Z,1.30
2022-07-30T05:19:40.574Z,1.15
2022-07-30T05:22:30.782Z,0.93
2022-07-30T05:25:19.177Z,0.70
2022-07-30T05:28:07.350Z,0.80
2022-07-30T05:30:58.149Z,0.80
2022-07-30T05:33:47.513Z,0.50
2022-07-30T05:36:38.951Z,0.80
2022-07-30T05:39:27.145Z,0.50
2022-07-30T05:42:34.038Z,0.30
2022-07-30T05:45:22.371Z,0.70
2022-07-30T05:48:10.711Z,0.75
2022-07-30T05:50:59.218Z,0.70
2022-07-30T05:53:48.172Z,0.60
2022-07-30T05:57:00.006Z,0.80
2022-07-30T05:59:59.714Z,0.70
2022-07-30T06:03:06.100Z,0.93
2022-07-30T06:06:29.171Z,0.32
2022-07-30T06:09:17.608Z,0.50
2022-07-30T06:12:14.846Z,0.80
2022-07-30T06:15:04.676Z,0.80
2022-07-30T06:18:01.535Z,0.88
2022-07-30T06:21:06.259Z,0.77
2022-07-30T06:24:14.664Z,0.68
2022-07-30T06:27:13.551Z,1.30
2022-07-30T06:30:03.365Z,0.77
2022-07-30T06:32:52.202Z,1.20
2022-07-30T06:35:42.871Z,0.60
2022-07-30T06:38:33.966Z,0.82
2022-07-30T06:41:30.782Z,0.93
2022-07-30T06:44:20.105Z,0.70
2022-07-30T06:47:43.788Z,0.70
2022-07-30T06:50:32.229Z,1.23
2022-07-30T06:53:21.308Z,0.70
2022-07-30T06:56:32.658Z,1.25
2022-07-30T06:59:27.631Z,1.08
2022-07-30T07:02:42.810Z,1.00
2022-07-30T07:05:34.546Z,1.00
2022-07-30T07:08:25.273Z,1.42
2022-07-30T07:11:16.009Z,1.08
2022-07-30T07:14:15.117Z,1.15
2022-07-30T07:17:03.896Z,1.67
2022-07-30T07:20:11.275Z,1.00
2022-07-30T07:23:14.772Z,1.70
2022-07-30T07:26:04.129Z,1.20
2022-07-30T07:28:52.606Z,1.75
2022-07-30T07:32:05.694Z,1.85
2022-07-30T07:34:49.194Z,2.00
2022-07-30T07:37:37.696Z,2.05
2022-07-30T07:40:29.626Z,2.30
2022-07-30T07:43:19.053Z,3.17
2022-07-30T07:46:08.029Z,2.80
2022-07-30T07:48:57.883Z,2.83
2022-07-30T07:51:55.801Z,2.97
2022-07-30T07:54:44.795Z,4.05
2022-07-30T07:57:42.618Z,2.75
2022-07-30T08:00:32.494Z,3.15
2022-07-30T08:03:21.232Z,2.75
2022-07-30T08:06:14.735Z,3.88
2022-07-30T08:09:43.507Z,2.53
2022-07-30T08:12:53.573Z,3.33
2022-07-30T08:15:42.256Z,2.55
2022-07-30T08:19:03.140Z,2.15
2022-07-30T08:21:59.632Z,2.72
2022-07-30T08:24:51.903Z,1.45
2022-07-30T08:27:40.394Z,2.75
2022-07-30T08:30:31.694Z,2.65
2022-07-30T08:33:20.322Z,2.80
2022-07-30T08:36:10.208Z,3.72
2022-07-30T08:38:59.870Z,3.33
2022-07-30T08:41:49.873Z,4.15
2022-07-30T08:44:39.271Z,4.22
2022-07-30T08:47:34.848Z,4.88
2022-07-30T08:50:32.221Z,3.95
2022-07-30T08:53:46.905Z,5.65
2022-07-30T08:56:35.502Z,4.60
2022-07-30T08:59:24.758Z,4.95
2022-07-30T09:02:33.768Z,5.65
2022-07-30T09:05:25.695Z,4.55
2022-07-30T09:08:14.451Z,4.40
2022-07-30T09:11:07.220Z,1.75
2022-07-30T09:13:56.448Z,4.95
2022-07-30T09:16:46.440Z,5.70
2022-07-30T09:19:35.481Z,4.55
2022-07-30T09:22:23.881Z,3.42
2022-07-30T09:25:36.718Z,5.93
2022-07-30T09:28:45.101Z,4.68
2022-07-30T09:32:13.237Z,5.68
2022-07-30T09:35:20.407Z,5.35
2022-07-30T09:38:28.156Z,4.30
2022-07-30T09:41:39.562Z,4.75
2022-07-30T09:44:32.986Z,4.75
2022-07-30T09:47:34.161Z,4.30
2022-07-30T09:50:29.945Z,3.90
2022-07-30T09:53:19.802Z,6.15
2022-07-30T09:56:30.202Z,2.67
2022-07-30T10:02:41.373Z,4.85
2022-07-30T10:05:59.178Z,2.28
2022-07-30T10:08:50.964Z,4.32
2022-07-30T10:11:40.079Z,4.60
2022-07-30T10:14:42.637Z,4.82
2022-07-30T10:17:34.397Z,3.28
2022-07-30T10:20:38.795Z,5.38
2022-07-30T10:24:06.733Z,4.90
2022-07-30T10:27:14.001Z,5.07
2022-07-30T10:30:20.301Z,4.57
2022-07-30T10:33:36.213Z,5.03
2022-07-30T10:36:26.030Z,5.35
2022-07-30T10:39:20.461Z,4.10
2022-07-30T10:42:25.946Z,5.13
2022-07-30T10:45:45.530Z,4.80
2022-07-30T10:48:35.349Z,4.50
2022-07-30T10:51:43.264Z,4.22
2022-07-30T10:54:36.511Z,4.63
2022-07-30T10:57:32.254Z,2.85
2022-07-30T11:00:21.456Z,5.75
2022-07-30T11:03:23.733Z,4.35
2022-07-30T11:06:30.335Z,4.00
2022-07-30T11:09:40.955Z,5.40
2022-07-30T11:12:42.323Z,5.57
2022-07-30T11:15:57.454Z,4.20
2022-07-30T11:19:56.746Z,3.00
2022-07-30T11:22:38.961Z,4.43
2022-07-30T11:25:50.258Z,4.35
2022-07-30T11:28:43.157Z,3.80
2022-07-30T11:31:57.733Z,3.17
2022-07-30T11:34:45.671Z,2.95
2022-07-30T11:38:02.157Z,4.00
2022-07-30T11:40:50.259Z,4.28
2022-07-30T11:43:41.589Z,3.70
2022-07-30T11:46:30.101Z,3.20
2022-07-30T11:49:19.151Z,3.90
2022-07-30T11:52:08.668Z,4.10
2022-07-30T11:54:56.866Z,4.32
2022-07-30T11:57:45.337Z,3.60
2022-07-30T12:00:40.531Z,4.15
2022-07-30T12:03:31.911Z,4.10
2022-07-30T12:06:20.641Z,4.25
2022-07-30T12:09:10.326Z,2.85
2022-07-30T12:11:58.813Z,6.35
2022-07-30T12:14:49.402Z,3.97
2022-07-30T12:17:47.082Z,5.47
2022-07-30T12:20:35.733Z,3.83
2022-07-30T12:23:24.711Z,3.45
2022-07-30T12:26:26.534Z,2.58
2022-07-30T12:29:15.429Z,3.40
2022-07-30T12:32:04.236Z,3.90
2022-07-30T12:34:58.528Z,3.67
2022-07-30T12:38:04.370Z,2.95
2022-07-30T12:41:03.650Z,3.90
2022-07-30T12:43:55.237Z,3.67
2022-07-30T12:46:43.746Z,3.95
2022-07-30T12:49:37.701Z,3.63
2022-07-30T12:52:35.859Z,5.32
2022-07-30T12:55:33.325Z,5.35
2022-07-30T12:58:21.741Z,5.18
2022-07-30T13:01:12.086Z,6.32
2022-07-30T13:04:07.388Z,6.57
2022-07-30T13:07:29.075Z,7.70
2022-07-30T13:10:18.860Z,2.83
2022-07-30T13:13:06.979Z,5.25
2022-07-30T13:16:06.528Z,5.10
2022-07-30T13:18:54.957Z,4.47
2022-07-30T13:21:49.422Z,5.32
2022-07-30T13:24:39.294Z,6.30
2022-07-30T13:27:27.766Z,4.63
2022-07-30T13:30:16.226Z,6.35
2022-07-30T13:33:04.606Z,6.75
2022-07-30T13:35:53.011Z,5.40
2022-07-30T13:38:41.681Z,4.45
2022-07-30T13:41:29.879Z,4.80
2022-07-30T13:44:18.393Z,5.00
2022-07-30T13:47:08.488Z,3.53
2022-07-30T13:49:56.857Z,4.43
2022-07-30T13:52:45.615Z,4.07
2022-07-30T13:55:34.234Z,4.82
2022-07-30T13:58:22.799Z,3.60
2022-07-30T14:01:17.709Z,3.35
2022-07-30T14:04:06.742Z,4.47
2022-07-30T14:06:55.135Z,3.63
2022-07-30T14:09:45.918Z,3.42
2022-07-30T14:12:36.314Z,3.50
2022-07-30T14:15:26.522Z,3.90
2022-07-30T14:18:15.055Z,5.65
2022-07-30T14:21:03.299Z,4.95
2022-07-30T14:23:51.356Z,4.82
2022-07-30T14:26:39.779Z,3.42
2022-07-30T14:29:28.169Z,3.72
2022-07-30T14:32:16.580Z,4.97
2022-07-30T14:35:09.341Z,5.45
2022-07-30T14:37:57.989Z,2.58
2022-07-30T14:40:46.792Z,3.08
2022-07-30T14:43:34.953Z,3.50
2022-07-30T14:46:23.908Z,4.75
2022-07-30T14:49:12.432Z,4.97
2022-07-30T14:52:04.131Z,4.00
2022-07-30T14:54:52.733Z,4.00
2022-07-30T14:57:41.342Z,5.07
2022-07-30T15:00:34.758Z,4.65
2022-07-30T15:03:37.271Z,3.10
2022-07-30T15:06:26.633Z,3.60
2022-07-30T15:09:14.679Z,2.97
2022-07-30T15:12:09.013Z,3.28
2022-07-30T15:14:58.066Z,3.88
2022-07-30T15:17:46.402Z,3.45
2022-07-30T15:20:34.749Z,2.97
2022-07-30T15:23:23.168Z,3.58
2022-07-30T15:26:11.593Z,4.22
2022-07-30T15:28:59.794Z,3.38
2022-07-30T15:31:47.928Z,3.70
2022-07-30T15:34:36.213Z,3.97
2022-07-30T15:37:24.798Z,3.10
2022-07-30T15:40:14.328Z,2.92
2022-07-30T15:43:02.601Z,6.10
2022-07-30T15:45:58.365Z,4.03
2022-07-30T15:48:46.349Z,3.92
2022-07-30T15:51:35.448Z,4.07
2022-07-30T15:54:24.076Z,4.22
2022-07-30T15:57:13.762Z,2.30
2022-07-30T16:00:02.421Z,3.60
2022-07-30T16:03:00.313Z,4.18
2022-07-30T16:05:51.790Z,3.92
2022-07-30T16:08:40.721Z,3.83
2022-07-30T16:11:28.959Z,3.97
2022-07-30T16:14:20.710Z,1.55
2022-07-30T16:17:13.661Z,1.83
2022-07-30T16:20:03.766Z,2.25
2022-07-30T16:22:53.077Z,2.97
2022-07-30T16:25:41.059Z,4.22
2022-07-30T16:28:29.133Z,3.25
2022-07-30T16:31:17.710Z,3.75
2022-07-30T16:34:07.076Z,3.92
2022-07-30T16:36:55.590Z,4.55
2022-07-30T16:39:43.949Z,3.75
2022-07-30T16:42:32.924Z,4.47
2022-07-30T16:45:21.365Z,2.95
2022-07-30T16:48:11.168Z,3.80
2022-07-30T16:51:00.173Z,2.88
2022-07-30T16:53:48.764Z,3.45
2022-07-30T16:56:37.257Z,3.15
2022-07-30T16:59:25.707Z,3.22
2022-07-30T17:02:14.180Z,3.72
2022-07-30T17:05:02.294Z,3.00
2022-07-30T17:07:50.361Z,3.13
2022-07-30T17:10:38.485Z,3.85
2022-07-30T17:13:29.093Z,3.80
2022-07-30T17:16:17.680Z,4.18
2022-07-30T17:19:08.538Z,4.15
2022-07-30T17:21:58.255Z,4.25
2022-07-30T17:24:46.606Z,4.25
2022-07-30T17:27:35.086Z,4.25
2022-07-30T17:30:24.013Z,3.75
2022-07-30T17:33:12.026Z,3.22
2022-07-30T17:36:00.562Z,3.55
2022-07-30T17:38:48.934Z,1.83
2022-07-30T17:41:36.941Z,3.63
2022-07-30T17:44:45.376Z,2.15
2022-07-30T17:47:33.844Z,5.75
2022-07-30T17:50:22.842Z,1.75
2022-07-30T17:53:11.377Z,5.68
2022-07-30T17:55:59.743Z,4.15
2022-07-30T17:58:51.269Z,5.05
2022-07-30T18:01:39.914Z,3.75
2022-07-30T18:04:28.412Z,3.55
2022-07-30T18:07:16.414Z,3.80
2022-07-30T18:10:05.649Z,4.50
2022-07-30T18:12:54.124Z,4.40
2022-07-30T18:15:43.543Z,4.45
2022-07-30T18:18:32.125Z,3.88
2022-07-30T18:21:20.733Z,4.35
2022-07-30T18:24:08.949Z,4.05
2022-07-30T18:27:01.140Z,2.38
2022-07-30T18:29:49.244Z,3.80
2022-07-30T18:32:37.320Z,3.80
2022-07-30T18:35:25.479Z,3.88
2022-07-30T18:38:14.477Z,4.07
2022-07-30T18:41:03.578Z,3.47
2022-07-30T18:43:51.594Z,3.80
2022-07-30T18:46:39.807Z,5.25
2022-07-30T18:49:38.270Z,3.38
2022-07-30T18:52:27.000Z,4.28
2022-07-30T18:55:17.365Z,2.53
2022-07-30T18:58:05.715Z,5.00
2022-07-30T19:00:54.212Z,4.10
2022-07-30T19:03:42.235Z,4.93
2022-07-30T19:06:31.437Z,4.07
2022-07-30T19:09:19.997Z,3.88
2022-07-30T19:12:08.551Z,2.83
2022-07-30T19:14:56.890Z,4.22
2022-07-30T19:17:46.094Z,4.72
2022-07-30T19:20:35.253Z,3.40
2022-07-30T19:23:23.713Z,4.30
2022-07-30T19:26:13.807Z,3.15
2022-07-30T19:29:02.267Z,3.55
2022-07-30T19:31:50.746Z,3.95
2022-07-30T19:34:42.695Z,3.42
2022-07-30T19:37:30.738Z,4.63
2022-07-30T19:40:19.298Z,6.18
2022-07-30T19:43:09.467Z,3.90
2022-07-30T19:45:59.469Z,4.95
2022-07-30T19:48:48.394Z,3.53
2022-07-30T19:52:22.278Z,4.20
2022-07-30T19:54:48.113Z,3.85
2022-07-30T19:57:52.882Z,3.55
2022-07-30T20:00:42.705Z,3.78
2022-07-30T20:03:38.831Z,3.83
2022-07-30T20:06:27.462Z,2.53
2022-07-30T20:09:16.972Z,3.40
2022-07-30T20:12:05.847Z,3.55
2022-07-30T20:14:56.125Z,3.85
2022-07-30T20:17:46.436Z,5.95
2022-07-30T20:20:34.738Z,3.97
2022-07-30T20:23:22.995Z,3.70
2022-07-30T20:26:14.219Z,3.75
2022-07-30T20:29:03.744Z,3.63
2022-07-30T20:31:59.092Z,4.03
2022-07-30T20:34:47.257Z,3.97
2022-07-30T20:37:54.439Z,2.67
2022-07-30T20:40:46.709Z,1.92
2022-07-30T20:43:35.140Z,1.08
2022-07-30T20:46:39.705Z,1.80
2022-07-30T20:49:28.952Z,2.20
2022-07-30T20:52:23.358Z,2.40
2022-07-30T20:55:14.343Z,3.00
2022-07-30T20:58:07.958Z,3.58
2022-07-30T21:01:01.490Z,5.35
2022-07-30T21:03:53.331Z,4.55
2022-07-30T21:06:45.928Z,4.32
2022-07-30T21:09:52.215Z,2.78
2022-07-30T21:12:41.268Z,1.77
2022-07-30T21:15:33.427Z,2.85
2022-07-30T21:18:23.217Z,3.40
2022-07-30T21:21:11.572Z,2.78
2022-07-30T21:24:00.962Z,3.35
2022-07-30T21:26:50.870Z,2.35
2022-07-30T21:29:39.027Z,2.22
2022-07-30T21:32:27.167Z,2.42
2022-07-30T21:35:15.270Z,3.10
2022-07-30T21:38:03.774Z,3.03
2022-07-30T21:40:52.263Z,2.53
2022-07-30T21:43:40.584Z,3.60
2022-07-30T21:46:30.007Z,3.83
2022-07-30T21:49:19.967Z,2.17
2022-07-30T21:52:08.919Z,3.08
2022-07-30T21:54:57.141Z,3.53
2022-07-30T21:57:52.875Z,3.45
2022-07-30T22:00:50.418Z,3.28
2022-07-30T22:04:04.805Z,1.88
2022-07-30T22:06:47.255Z,3.38
2022-07-30T22:09:35.649Z,2.75
2022-07-30T22:12:28.852Z,2.65
2022-07-30T22:15:17.605Z,2.05
2022-07-30T22:18:06.438Z,2.70
2022-07-30T22:20:54.790Z,3.17
2022-07-30T22:23:54.958Z,2.08
2022-07-30T22:26:47.096Z,2.90
2022-07-30T22:29:42.658Z,3.63
2022-07-30T22:32:31.330Z,3.33
2022-07-30T22:35:20.623Z,2.67
2022-07-30T22:38:08.930Z,2.88
2022-07-30T22:40:57.461Z,3.03
2022-07-30T22:43:45.966Z,2.08
2022-07-30T22:46:34.332Z,2.78
2022-07-30T22:49:26.557Z,1.40
2022-07-30T22:52:50.275Z,2.25
2022-07-30T22:55:45.887Z,2.85
2022-07-30T22:58:34.449Z,2.08
2022-07-30T23:01:22.914Z,2.60
2022-07-30T23:04:11.438Z,1.92
2022-07-30T23:06:59.827Z,2.30
2022-07-30T23:12:31.000Z,2.50
2022-07-30T23:12:56.633Z,2.88
2022-07-30T23:15:45.064Z,1.75
2022-07-30T23:18:35.190Z,2.78
2022-07-30T23:21:23.302Z,1.20
2022-07-30T23:24:11.414Z,1.63
2022-07-30T23:26:59.912Z,0.90
2022-07-30T23:29:48.121Z,1.25
2022-07-30T23:32:36.797Z,1.05
2022-07-30T23:35:24.907Z,0.90
2022-07-30T23:38:13.302Z,0.95
2022-07-30T23:41:04.024Z,0.60
2022-07-30T23:43:52.552Z,0.75
2022-07-30T23:46:40.912Z,0.70
2022-07-30T23:49:28.925Z,0.80
2022-07-30T23:52:17.381Z,0.80
2022-07-30T23:55:05.895Z,0.80
2022-07-30T23:57:54.421Z,0.60
